createdAt,value
2019-03-20T00:00:20.378Z,19.47
2019-03-20T00:02:49.154Z,22.13
2019-03-20T00:05:17.528Z,21.10
2019-03-20T00:07:45.817Z,23.70
2019-03-20T00:10:14.184Z,28.53
2019-03-20T00:12:42.690Z,27.47
2019-03-20T00:15:13.298Z,22.07
2019-03-20T00:17:41.591Z,22.97
2019-03-20T00:20:15.994Z,26.13
2019-03-20T00:22:44.384Z,22.33
2019-03-20T00:25:12.825Z,21.27
2019-03-20T00:27:41.259Z,24.33
2019-03-20T00:30:19.675Z,26.40
2019-03-20T00:32:48.099Z,18.47
2019-03-20T00:35:16.564Z,19.00
2019-03-20T00:37:44.971Z,24.33
2019-03-20T00:40:17.099Z,27.67
2019-03-20T00:42:45.449Z,22.43
2019-03-20T00:45:16.298Z,19.60
2019-03-20T00:47:44.639Z,19.57
2019-03-20T00:50:18.034Z,20.67
2019-03-20T00:52:46.329Z,25.97
2019-03-20T00:55:16.538Z,22.17
2019-03-20T00:57:45.056Z,25.00
2019-03-20T01:00:18.939Z,21.07
2019-03-20T01:02:47.271Z,19.90
2019-03-20T01:05:15.620Z,24.50
2019-03-20T01:07:44.275Z,23.57
2019-03-20T01:10:23.806Z,21.47
2019-03-20T01:12:52.193Z,26.67
2019-03-20T01:15:20.591Z,25.33
2019-03-20T01:17:50.561Z,22.67
2019-03-20T01:20:20.026Z,24.00
2019-03-20T01:22:48.334Z,19.97
2019-03-20T01:25:17.573Z,20.17
2019-03-20T01:27:45.961Z,21.80
2019-03-20T01:30:30.938Z,20.07
2019-03-20T01:33:03.767Z,22.80
2019-03-20T01:35:32.187Z,19.93
2019-03-20T01:38:00.469Z,18.90
2019-03-20T01:40:28.780Z,20.43
2019-03-20T01:42:57.102Z,19.90
2019-03-20T01:45:25.406Z,19.93
2019-03-20T01:47:53.752Z,18.30
2019-03-20T01:50:22.143Z,22.03
2019-03-20T01:52:52.526Z,20.43
2019-03-20T01:55:20.887Z,20.50
2019-03-20T01:57:49.293Z,18.80
2019-03-20T02:00:17.631Z,20.47
2019-03-20T02:02:45.967Z,20.40
2019-03-20T02:05:14.230Z,15.23
2019-03-20T02:07:42.598Z,19.97
2019-03-20T02:10:16.296Z,18.43
2019-03-20T02:12:44.600Z,19.63
2019-03-20T02:15:14.976Z,19.57
2019-03-20T02:17:43.390Z,25.47
2019-03-20T02:20:16.895Z,17.43
2019-03-20T02:22:45.263Z,16.90
2019-03-20T02:25:13.893Z,18.77
2019-03-20T02:27:42.146Z,17.80
2019-03-20T02:30:13.495Z,21.47
2019-03-20T02:32:41.900Z,14.87
2019-03-20T02:35:10.353Z,16.10
2019-03-20T02:37:40.297Z,19.30
2019-03-20T02:40:14.845Z,22.97
2019-03-20T02:42:43.317Z,20.80
2019-03-20T02:45:13.329Z,18.80
2019-03-20T02:47:41.709Z,19.47
2019-03-20T02:50:10.842Z,16.03
2019-03-20T02:52:39.183Z,20.40
2019-03-20T02:55:09.118Z,21.30
2019-03-20T02:57:37.432Z,20.97
2019-03-20T03:00:16.462Z,22.40
2019-03-20T03:02:44.806Z,19.70
2019-03-20T03:05:13.448Z,25.50
2019-03-20T03:07:41.756Z,18.77
2019-03-20T03:10:14.608Z,17.87
2019-03-20T03:12:42.959Z,20.93
2019-03-20T03:15:12.366Z,22.83
2019-03-20T03:17:40.856Z,23.37
2019-03-20T03:20:13.509Z,18.87
2019-03-20T03:22:41.973Z,19.30
2019-03-20T03:25:11.331Z,17.00
2019-03-20T03:27:39.699Z,17.50
2019-03-20T03:30:17.515Z,18.97
2019-03-20T03:32:46.056Z,19.27
2019-03-20T03:35:17.711Z,20.50
2019-03-20T03:37:44.500Z,18.47
2019-03-20T03:40:14.647Z,20.60
2019-03-20T03:42:42.936Z,19.43
2019-03-20T03:45:12.996Z,20.10
2019-03-20T03:47:42.233Z,21.93
2019-03-20T03:50:10.843Z,21.93
2019-03-20T03:52:39.112Z,19.03
2019-03-20T03:55:09.837Z,25.07
2019-03-20T03:57:38.201Z,25.70
2019-03-20T04:00:09.990Z,19.83
2019-03-20T04:02:38.357Z,21.57
2019-03-20T04:05:06.678Z,20.13
2019-03-20T04:07:35.066Z,22.33
2019-03-20T04:10:04.457Z,24.97
2019-03-20T04:12:32.717Z,18.80
2019-03-20T04:15:01.004Z,23.40
2019-03-20T04:17:29.285Z,20.60
2019-03-20T04:19:57.573Z,18.47
2019-03-20T04:22:25.953Z,22.47
2019-03-20T04:24:54.342Z,18.77
2019-03-20T04:27:22.651Z,16.50
2019-03-20T04:29:50.992Z,17.80
2019-03-20T04:32:19.295Z,20.63
2019-03-20T04:34:47.719Z,20.43
2019-03-20T04:37:15.992Z,21.00
2019-03-20T04:39:44.362Z,20.97
2019-03-20T04:42:12.741Z,22.63
2019-03-20T04:44:41.110Z,19.80
2019-03-20T04:47:09.397Z,21.50
2019-03-20T04:49:37.777Z,20.87
2019-03-20T04:52:06.200Z,23.17
2019-03-20T04:54:34.583Z,27.40
2019-03-20T04:57:02.958Z,24.30
2019-03-20T04:59:31.328Z,25.70
2019-03-20T05:01:59.637Z,27.67
2019-03-20T05:04:27.927Z,24.47
2019-03-20T05:06:59.221Z,27.27
2019-03-20T05:09:26.281Z,26.40
2019-03-20T05:11:54.577Z,23.27
2019-03-20T05:14:22.990Z,22.53
2019-03-20T05:16:52.442Z,22.07
2019-03-20T05:19:20.876Z,21.07
2019-03-20T05:21:49.131Z,24.30
2019-03-20T05:24:17.451Z,29.93
2019-03-20T05:26:45.794Z,22.73
2019-03-20T05:29:14.105Z,24.10
2019-03-20T05:31:42.372Z,26.17
2019-03-20T05:34:10.724Z,21.77
2019-03-20T05:36:39.110Z,32.70
2019-03-20T05:39:07.732Z,22.87
2019-03-20T05:41:35.990Z,24.53
2019-03-20T05:44:04.288Z,20.47
2019-03-20T05:46:32.659Z,20.93
2019-03-20T05:49:01.009Z,18.67
2019-03-20T05:51:29.346Z,24.70
2019-03-20T05:53:57.645Z,28.13
2019-03-20T05:56:25.937Z,20.87
2019-03-20T05:58:54.254Z,23.50
2019-03-20T06:01:22.708Z,23.87
2019-03-20T06:03:50.993Z,27.83
2019-03-20T06:06:19.306Z,25.47
2019-03-20T06:08:47.681Z,27.03
2019-03-20T06:11:17.695Z,27.77
2019-03-20T06:13:46.041Z,26.43
2019-03-20T06:16:14.460Z,27.43
2019-03-20T06:18:42.918Z,27.57
2019-03-20T06:21:11.419Z,29.10
2019-03-20T06:23:39.696Z,27.00
2019-03-20T06:26:08.129Z,30.60
2019-03-20T06:28:36.536Z,23.17
2019-03-20T06:31:04.902Z,29.03
2019-03-20T06:33:33.217Z,24.60
2019-03-20T06:36:02.668Z,20.40
2019-03-20T06:38:30.989Z,24.30
2019-03-20T06:40:59.279Z,27.13
2019-03-20T06:43:27.544Z,23.97
2019-03-20T06:45:55.862Z,25.67
2019-03-20T06:48:24.297Z,25.07
2019-03-20T06:50:52.553Z,26.87
2019-03-20T06:53:20.895Z,29.10
2019-03-20T06:55:49.214Z,30.33
2019-03-20T06:58:17.561Z,28.83
2019-03-20T07:00:49.129Z,24.87
2019-03-20T07:03:23.442Z,24.70
2019-03-20T07:06:00.685Z,24.27
2019-03-20T07:08:32.226Z,23.37
2019-03-20T07:11:11.768Z,27.77
2019-03-20T07:13:40.163Z,36.60
2019-03-20T07:16:10.541Z,33.10
2019-03-20T07:18:38.831Z,31.03
2019-03-20T07:21:07.215Z,29.47
2019-03-20T07:23:35.493Z,24.27
2019-03-20T07:26:03.871Z,29.97
2019-03-20T07:28:32.249Z,30.97
2019-03-20T07:31:00.548Z,31.90
2019-03-20T07:33:28.804Z,24.43
2019-03-20T07:35:57.130Z,26.70
2019-03-20T07:38:25.392Z,24.30
2019-03-20T07:40:53.854Z,30.63
2019-03-20T07:43:22.171Z,32.37
2019-03-20T07:45:50.431Z,21.60
2019-03-20T07:48:22.271Z,26.53
2019-03-20T07:50:48.691Z,23.27
2019-03-20T07:53:16.982Z,28.00
2019-03-20T07:55:45.248Z,26.17
2019-03-20T07:58:13.511Z,22.00
2019-03-20T08:00:41.807Z,31.90
2019-03-20T08:03:10.067Z,28.80
2019-03-20T08:05:38.333Z,22.40
2019-03-20T08:08:07.866Z,21.57
2019-03-20T08:10:36.334Z,22.23
2019-03-20T08:13:04.627Z,21.00
2019-03-20T08:15:32.890Z,25.47
2019-03-20T08:18:01.184Z,27.70
2019-03-20T08:20:30.375Z,25.40
2019-03-20T08:22:58.630Z,19.93
2019-03-20T08:25:26.893Z,19.80
2019-03-20T08:27:55.178Z,19.63
2019-03-20T08:30:23.458Z,18.80
2019-03-20T08:32:51.726Z,24.60
2019-03-20T08:35:19.987Z,23.50
2019-03-20T08:37:48.277Z,23.87
2019-03-20T08:40:17.578Z,20.63
2019-03-20T08:45:31.770Z,28.13
2019-03-20T08:48:00.072Z,16.50
2019-03-20T08:50:28.318Z,22.27
2019-03-20T08:52:56.621Z,21.63
2019-03-20T08:55:24.915Z,19.10
2019-03-20T08:57:53.254Z,20.00
2019-03-20T09:00:25.291Z,30.73
2019-03-20T09:02:53.536Z,16.37
2019-03-20T09:05:21.790Z,21.93
2019-03-20T09:07:50.121Z,17.47
2019-03-20T09:10:26.359Z,16.83
2019-03-20T09:12:54.690Z,16.33
2019-03-20T09:15:22.954Z,16.43
2019-03-20T09:17:51.254Z,17.63
2019-03-20T09:20:24.061Z,20.50
2019-03-20T09:22:52.354Z,13.03
2019-03-20T09:25:21.731Z,13.27
2019-03-20T09:27:49.987Z,20.13
2019-03-20T09:30:21.537Z,19.47
2019-03-20T09:32:49.792Z,12.63
2019-03-20T09:35:18.050Z,12.57
2019-03-20T09:37:51.898Z,12.50
2019-03-20T09:40:24.749Z,9.60
2019-03-20T09:42:53.012Z,8.23
2019-03-20T09:45:22.142Z,13.27
2019-03-20T09:47:50.414Z,7.87
2019-03-20T09:50:25.901Z,10.47
2019-03-20T09:52:54.154Z,11.57
2019-03-20T09:55:22.420Z,10.77
2019-03-20T09:57:50.668Z,12.17
2019-03-20T10:00:22.915Z,10.33
2019-03-20T10:02:51.168Z,10.27
2019-03-20T10:05:19.497Z,8.67
2019-03-20T10:07:47.747Z,6.20
2019-03-20T10:10:22.828Z,7.00
2019-03-20T10:12:51.158Z,5.93
2019-03-20T10:15:33.102Z,10.13
2019-03-20T10:18:01.423Z,5.63
2019-03-20T10:20:29.755Z,6.63
2019-03-20T10:22:58.084Z,9.70
2019-03-20T10:25:26.370Z,8.70
2019-03-20T10:27:54.699Z,9.10
2019-03-20T10:30:26.852Z,5.93
2019-03-20T10:32:55.183Z,6.03
2019-03-20T10:35:23.485Z,7.20
2019-03-20T10:37:51.822Z,3.77
2019-03-20T10:40:24.063Z,7.70
2019-03-20T10:42:52.456Z,6.63
2019-03-20T10:45:20.939Z,9.23
2019-03-20T10:47:52.700Z,5.53
2019-03-20T10:50:24.867Z,6.20
2019-03-20T10:52:53.212Z,8.23
2019-03-20T10:55:21.551Z,7.13
2019-03-20T10:57:50.051Z,7.03
2019-03-20T11:00:22.403Z,7.60
2019-03-20T11:02:50.819Z,5.90
2019-03-20T11:05:19.218Z,5.23
2019-03-20T11:07:47.557Z,6.40
2019-03-20T11:10:21.007Z,9.27
2019-03-20T11:12:49.547Z,5.17
2019-03-20T11:15:19.096Z,7.00
2019-03-20T11:17:47.529Z,7.43
2019-03-20T11:20:17.115Z,6.70
2019-03-20T11:22:45.446Z,8.90
2019-03-20T11:25:15.647Z,5.33
2019-03-20T11:27:44.033Z,4.13
2019-03-20T11:30:17.807Z,7.97
2019-03-20T11:32:46.357Z,7.87
2019-03-20T11:35:15.050Z,9.30
2019-03-20T11:37:43.459Z,4.90
2019-03-20T11:40:17.940Z,7.17
2019-03-20T11:42:46.460Z,6.17
2019-03-20T11:45:14.861Z,12.40
2019-03-20T11:47:43.353Z,6.50
2019-03-20T11:50:20.473Z,7.60
2019-03-20T11:52:49.074Z,6.67
2019-03-20T11:55:17.612Z,9.00
2019-03-20T11:57:46.180Z,6.43
2019-03-20T12:00:25.045Z,11.07
2019-03-20T12:02:53.512Z,7.07
2019-03-20T12:05:21.847Z,5.83
2019-03-20T12:07:50.178Z,6.27
2019-03-20T12:10:21.772Z,6.23
2019-03-20T12:12:50.186Z,4.80
2019-03-20T12:15:18.686Z,5.63
2019-03-20T12:17:47.099Z,7.73
2019-03-20T12:20:23.428Z,4.53
2019-03-20T12:22:51.994Z,5.30
2019-03-20T12:25:26.042Z,7.20
2019-03-20T12:27:54.397Z,9.43
2019-03-20T12:30:26.091Z,6.27
2019-03-20T12:32:54.528Z,6.13
2019-03-20T12:35:23.792Z,8.00
2019-03-20T12:37:52.265Z,6.07
2019-03-20T12:40:30.873Z,11.23
2019-03-20T12:42:59.414Z,4.70
2019-03-20T12:45:35.041Z,9.67
2019-03-20T12:48:03.444Z,6.67
2019-03-20T12:50:31.898Z,6.70
2019-03-20T12:53:01.723Z,12.40
2019-03-20T12:55:31.213Z,10.47
2019-03-20T12:57:59.799Z,9.37
2019-03-20T13:00:28.568Z,9.23
2019-03-20T13:02:57.139Z,4.67
2019-03-20T13:05:25.746Z,5.33
2019-03-20T13:07:54.284Z,8.20
2019-03-20T13:10:27.678Z,8.10
2019-03-20T13:12:56.323Z,7.67
2019-03-20T13:15:25.655Z,6.00
2019-03-20T13:17:55.132Z,9.87
2019-03-20T13:20:23.647Z,7.53
2019-03-20T13:23:03.881Z,8.27
2019-03-20T13:25:32.565Z,8.47
2019-03-20T13:28:01.053Z,9.53
2019-03-20T13:31:01.742Z,5.83
2019-03-20T13:33:30.173Z,5.90
2019-03-20T13:35:58.545Z,8.50
2019-03-20T13:38:28.347Z,7.37
2019-03-20T13:40:56.823Z,6.97
2019-03-20T13:43:25.171Z,9.07
2019-03-20T13:45:53.564Z,10.53
2019-03-20T13:48:22.187Z,6.93
2019-03-20T13:50:50.564Z,6.17
2019-03-20T13:53:19.110Z,6.43
2019-03-20T13:55:47.676Z,5.70
2019-03-20T13:58:16.382Z,6.63
2019-03-20T14:00:45.064Z,12.87
2019-03-20T14:03:13.611Z,6.63
2019-03-20T14:05:42.008Z,7.53
2019-03-20T14:08:10.486Z,9.20
2019-03-20T14:10:49.404Z,5.50
2019-03-20T14:13:09.144Z,10.13
2019-03-20T14:15:37.821Z,11.00
2019-03-20T14:18:06.505Z,9.97
2019-03-20T14:20:35.147Z,6.33
2019-03-20T14:23:03.638Z,11.53
2019-03-20T14:25:32.076Z,6.17
2019-03-20T14:28:00.546Z,5.33
2019-03-20T14:30:35.243Z,7.13
2019-03-20T14:33:03.821Z,8.73
2019-03-20T14:35:32.217Z,6.93
2019-03-20T14:38:00.655Z,6.00
2019-03-20T14:40:36.216Z,7.17
2019-03-20T14:43:03.230Z,7.87
2019-03-20T14:45:31.947Z,6.13
2019-03-20T14:48:00.466Z,8.20
2019-03-20T14:50:33.256Z,6.47
2019-03-20T14:53:01.944Z,7.03
2019-03-20T14:55:30.467Z,8.97
2019-03-20T14:57:58.816Z,8.00
2019-03-20T15:00:30.976Z,7.80
2019-03-20T15:02:59.383Z,8.67
2019-03-20T15:05:27.720Z,4.43
2019-03-20T15:08:01.058Z,5.33
2019-03-20T15:10:29.450Z,6.30
2019-03-20T15:12:57.969Z,7.13
2019-03-20T15:15:42.041Z,10.87
2019-03-20T15:18:10.584Z,7.87
2019-03-20T15:20:39.161Z,10.00
2019-03-20T15:23:07.534Z,6.27
2019-03-20T15:25:35.992Z,9.10
2019-03-20T15:28:04.525Z,8.67
2019-03-20T15:30:32.902Z,10.93
2019-03-20T15:33:01.240Z,11.03
2019-03-20T15:35:29.567Z,10.13
2019-03-20T15:37:57.900Z,8.27
2019-03-20T15:40:30.939Z,5.53
2019-03-20T15:42:59.276Z,5.63
2019-03-20T15:45:27.610Z,6.90
2019-03-20T15:47:55.952Z,9.10
2019-03-20T15:50:28.615Z,10.00
2019-03-20T15:52:56.955Z,7.97
2019-03-20T15:55:30.296Z,6.20
2019-03-20T15:57:58.657Z,9.73
2019-03-20T16:00:26.986Z,8.33
2019-03-20T16:03:01.556Z,3.97
2019-03-20T16:05:29.889Z,8.10
2019-03-20T16:07:58.241Z,8.47
2019-03-20T16:10:26.539Z,6.17
2019-03-20T16:12:54.866Z,9.23
2019-03-20T16:15:23.957Z,11.50
2019-03-20T16:17:52.350Z,8.63
2019-03-20T16:20:20.675Z,9.03
2019-03-20T16:22:49.008Z,5.53
2019-03-20T16:25:19.165Z,8.03
2019-03-20T16:27:47.496Z,5.70
2019-03-20T16:30:21.579Z,7.73
2019-03-20T16:32:49.939Z,6.67
2019-03-20T16:35:18.266Z,9.93
2019-03-20T16:37:46.591Z,8.27
2019-03-20T16:40:23.916Z,8.17
2019-03-20T16:42:52.255Z,6.37
2019-03-20T16:45:22.750Z,7.87
2019-03-20T16:47:51.069Z,7.47
2019-03-20T16:50:19.490Z,8.47
2019-03-20T16:52:49.747Z,8.37
2019-03-20T16:55:18.065Z,7.53
2019-03-20T16:57:46.400Z,8.77
2019-03-20T17:00:24.273Z,7.17
2019-03-20T17:02:52.608Z,5.50
2019-03-20T17:05:21.256Z,6.90
2019-03-20T17:07:49.712Z,9.17
2019-03-20T17:10:36.566Z,7.47
2019-03-20T17:13:06.150Z,6.17
2019-03-20T17:15:41.915Z,8.90
2019-03-20T17:18:10.274Z,7.50
2019-03-20T17:20:38.815Z,7.93
2019-03-20T17:23:07.928Z,10.20
2019-03-20T17:25:36.760Z,8.50
2019-03-20T17:28:05.639Z,8.97
2019-03-20T17:30:38.332Z,5.77
2019-03-20T17:33:07.355Z,8.07
2019-03-20T17:35:35.685Z,11.60
2019-03-20T17:38:04.372Z,8.97
2019-03-20T17:40:32.980Z,7.17
2019-03-20T17:43:01.580Z,10.77
2019-03-20T17:45:30.047Z,9.90
2019-03-20T17:47:58.640Z,11.27
2019-03-20T17:50:33.848Z,9.07
2019-03-20T17:53:02.499Z,6.30
2019-03-20T17:55:30.831Z,12.93
2019-03-20T17:57:59.180Z,13.57
2019-03-20T18:00:38.216Z,16.47
2019-03-20T18:03:06.981Z,23.07
2019-03-20T18:05:35.320Z,16.87
2019-03-20T18:08:04.494Z,18.33
2019-03-20T18:10:33.309Z,11.57
2019-03-20T18:13:01.855Z,14.47
2019-03-20T18:15:30.196Z,13.63
2019-03-20T18:17:58.513Z,14.03
2019-03-20T18:20:26.900Z,17.17
2019-03-20T18:22:55.226Z,16.20
2019-03-20T18:25:23.553Z,12.97
2019-03-20T18:27:51.961Z,11.57
2019-03-20T18:30:31.584Z,15.10
2019-03-20T18:32:59.936Z,14.43
2019-03-20T18:35:28.226Z,12.53
2019-03-20T18:37:56.517Z,11.93
2019-03-20T18:40:26.238Z,10.70
2019-03-20T18:42:54.594Z,13.40
2019-03-20T18:45:23.779Z,18.07
2019-03-20T18:47:52.028Z,12.27
2019-03-20T18:50:21.020Z,12.57
2019-03-20T18:52:49.394Z,16.30
2019-03-20T18:55:18.373Z,13.20
2019-03-20T18:57:46.893Z,12.90
2019-03-20T19:00:33.318Z,16.97
2019-03-20T19:03:19.758Z,14.40
2019-03-20T19:05:54.158Z,12.97
2019-03-20T19:08:22.479Z,13.10
2019-03-20T19:10:50.811Z,13.63
2019-03-20T19:13:19.066Z,12.37
2019-03-20T19:15:47.785Z,12.23
2019-03-20T19:18:16.129Z,11.67
2019-03-20T19:20:44.378Z,10.90
2019-03-20T19:23:12.641Z,12.90
2019-03-20T19:25:40.888Z,12.83
2019-03-20T19:28:09.154Z,17.37
2019-03-20T19:30:37.395Z,12.57
2019-03-20T19:33:05.739Z,11.23
2019-03-20T19:35:34.056Z,15.20
2019-03-20T19:38:02.317Z,15.40
2019-03-20T19:40:30.577Z,22.63
2019-03-20T19:42:58.819Z,14.63
2019-03-20T19:45:27.071Z,13.63
2019-03-20T19:47:55.329Z,13.17
2019-03-20T19:50:24.224Z,16.07
2019-03-20T19:52:52.471Z,17.90
2019-03-20T19:55:20.727Z,12.33
2019-03-20T19:57:48.983Z,11.67
2019-03-20T20:00:18.676Z,18.90
2019-03-20T20:02:46.990Z,19.97
2019-03-20T20:05:16.278Z,20.53
2019-03-20T20:07:44.770Z,22.40
2019-03-20T20:10:14.465Z,17.03
2019-03-20T20:12:42.683Z,20.90
2019-03-20T20:15:23.145Z,16.70
2019-03-20T20:17:51.510Z,17.63
2019-03-20T20:20:39.443Z,16.40
2019-03-20T20:23:07.748Z,15.27
2019-03-20T20:25:35.997Z,19.23
2019-03-20T20:28:04.368Z,22.23
2019-03-20T20:30:32.645Z,16.27
2019-03-20T20:33:00.908Z,21.80
2019-03-20T20:35:29.219Z,18.50
2019-03-20T20:37:57.556Z,18.47
2019-03-20T20:40:28.206Z,19.30
2019-03-20T20:42:56.495Z,21.03
2019-03-20T20:45:24.772Z,21.73
2019-03-20T20:47:53.012Z,16.63
2019-03-20T20:50:21.276Z,19.10
2019-03-20T20:52:49.613Z,15.13
2019-03-20T20:55:22.542Z,18.67
2019-03-20T20:57:50.920Z,18.87
2019-03-20T21:00:22.922Z,16.97
2019-03-20T21:02:51.306Z,15.30
2019-03-20T21:05:19.544Z,13.33
2019-03-20T21:07:47.915Z,14.70
2019-03-20T21:10:17.349Z,21.57
2019-03-20T21:12:55.480Z,17.80
2019-03-20T21:15:34.706Z,20.60
2019-03-20T21:18:15.428Z,18.40
2019-03-20T21:20:46.015Z,21.00
2019-03-20T21:23:34.119Z,27.50
2019-03-20T21:26:02.666Z,13.67
2019-03-20T21:28:52.266Z,20.60
2019-03-20T21:31:29.808Z,13.30
2019-03-20T21:34:10.267Z,15.47
2019-03-20T21:36:47.587Z,21.33
2019-03-20T21:39:15.894Z,18.63
2019-03-20T21:42:02.706Z,17.17
2019-03-20T21:44:50.781Z,15.80
2019-03-20T21:47:33.759Z,11.27
2019-03-20T21:50:20.373Z,20.80
2019-03-20T21:52:48.657Z,19.23
2019-03-20T21:55:23.398Z,23.57
2019-03-20T21:57:55.006Z,13.87
2019-03-20T22:00:52.467Z,21.40
2019-03-20T22:03:20.717Z,18.33
2019-03-20T22:06:04.357Z,16.33
2019-03-20T22:08:32.678Z,22.63
2019-03-20T22:11:26.919Z,16.83
2019-03-20T22:13:58.509Z,16.50
2019-03-20T22:17:03.264Z,18.00
2019-03-20T22:19:43.798Z,17.53
2019-03-20T22:22:20.988Z,24.43
2019-03-20T22:25:03.682Z,17.10
2019-03-20T22:28:08.866Z,20.33
2019-03-20T22:30:37.128Z,15.03
2019-03-20T22:33:25.366Z,21.60
2019-03-20T22:35:53.741Z,18.80
2019-03-20T22:38:31.087Z,21.03
2019-03-20T22:41:11.375Z,16.73
2019-03-20T22:43:48.200Z,15.80
2019-03-20T22:46:34.954Z,19.80
2019-03-20T22:49:25.391Z,19.27
2019-03-20T22:52:09.973Z,40.77
2019-03-20T22:55:08.987Z,24.10
2019-03-20T22:57:58.680Z,16.43
2019-03-20T23:00:28.297Z,23.13
2019-03-20T23:03:12.732Z,22.07
2019-03-20T23:05:41.004Z,24.50
2019-03-20T23:08:16.147Z,29.63
2019-03-20T23:10:47.490Z,25.80
2019-03-20T23:13:19.260Z,29.37
2019-03-20T23:15:45.826Z,30.37
2019-03-20T23:18:14.094Z,25.27
2019-03-20T23:20:43.363Z,22.43
2019-03-20T23:23:11.734Z,25.67
2019-03-20T23:25:40.131Z,22.33
2019-03-20T23:28:08.402Z,20.60
2019-03-20T23:30:36.657Z,23.97
2019-03-20T23:33:05.003Z,24.93
2019-03-20T23:35:33.273Z,22.40
2019-03-20T23:38:01.692Z,22.63
2019-03-20T23:40:30.289Z,19.97
2019-03-20T23:43:04.190Z,24.43
2019-03-20T23:45:32.440Z,20.83
2019-03-20T23:48:13.187Z,24.97
2019-03-20T23:50:41.507Z,24.60
2019-03-20T23:53:09.761Z,27.37
2019-03-20T23:55:38.026Z,21.47
2019-03-20T23:58:06.283Z,21.20
